Time;durP1;ratioP1;P1;durP2;ratioP2;P2;SDS_P1;SDS_P2;PMS_P1;PMS_P2;Temp;Humidity;BMP_temperature;BMP_pressure;BME280_temperature;BME280_humidity;BME280_pressure;Samples;Min_cycle;Max_cycle;Signal;HPM_P1;HPM_P2
2024/01/26 00:02:42;;;;;;;;;2.00;1.25;;;;;1.84;89.63;100813.98;112766;240;39236;-52
2024/01/26 00:05:25;;;;;;;;;4.00;3.00;;;;;1.81;89.51;100811.92;112796;240;39388;-52
2024/01/26 00:08:05;;;;;;;;;2.00;2.00;;;;;1.76;89.46;100814.27;112753;240;39947;-51
2024/01/26 00:10:44;;;;;;;;;6.00;4.00;;;;;1.71;89.45;100817.27;112808;240;39889;-55
2024/01/26 00:13:19;;;;;;;;;5.25;4.00;;;;;1.65;89.37;100819.00;112789;240;39244;-56
2024/01/26 00:15:57;;;;;;;;;2.00;2.00;;;;;1.58;89.33;100828.85;112848;240;41211;-56
2024/01/26 00:18:36;;;;;;;;;2.67;2.00;;;;;1.60;89.46;100829.24;112790;240;40755;-56
2024/01/26 00:21:11;;;;;;;;;2.50;2.00;;;;;1.64;89.43;100836.18;112776;240;40214;-53
2024/01/26 00:23:49;;;;;;;;;4.75;2.00;;;;;1.65;89.38;100833.59;112784;240;39527;-53
2024/01/26 00:26:28;;;;;;;;;2.00;2.00;;;;;1.69;89.48;100836.29;112780;240;40529;-55
2024/01/26 00:29:07;;;;;;;;;3.00;2.00;;;;;1.72;89.45;100846.86;112796;240;40983;-54
2024/01/26 00:31:46;;;;;;;;;3.00;2.00;;;;;1.75;89.38;100851.38;112748;240;40141;-55
2024/01/26 00:34:26;;;;;;;;;1.00;1.00;;;;;1.74;89.37;100858.77;112811;240;39769;-52
2024/01/26 00:37:06;;;;;;;;;4.00;2.00;;;;;1.72;89.37;100862.84;112780;240;40057;-53
2024/01/26 00:39:43;;;;;;;;;2.00;1.00;;;;;1.71;89.23;100860.10;112789;240;39483;-52
2024/01/26 00:42:20;;;;;;;;;3.75;2.00;;;;;1.70;89.02;100861.80;112801;240;39550;-52
2024/01/26 00:44:59;;;;;;;;;1.00;1.00;;;;;1.65;89.16;100861.97;112870;240;40069;-55
2024/01/26 00:47:38;;;;;;;;;2.00;1.00;;;;;1.61;89.08;100865.67;112815;240;39536;-55
2024/01/26 00:50:12;;;;;;;;;1.00;1.00;;;;;1.60;89.16;100865.06;112829;240;40543;-55
2024/01/26 00:52:49;;;;;;;;;2.00;1.00;;;;;1.59;89.17;100869.23;112750;240;40313;-54
2024/01/26 00:55:35;;;;;;;;;3.00;2.00;;;;;1.57;89.23;100875.20;112775;240;40813;-52
2024/01/26 00:58:17;;;;;;;;;1.00;1.00;;;;;1.59;89.33;100877.41;112792;240;39323;-52
2024/01/26 01:00:57;;;;;;;;;2.00;2.00;;;;;1.62;89.19;100880.15;112813;240;39701;-54
2024/01/26 01:03:35;;;;;;;;;1.00;1.00;;;;;1.63;89.13;100883.86;112776;240;39788;-54
2024/01/26 01:06:13;;;;;;;;;1.50;1.00;;;;;1.64;89.31;100882.66;112825;240;38986;-55
2024/01/26 01:08:52;;;;;;;;;2.00;2.00;;;;;1.66;89.33;100881.61;112804;240;39541;-55
2024/01/26 01:11:28;;;;;;;;;2.00;2.00;;;;;1.66;89.36;100879.85;112756;240;40825;-55
2024/01/26 01:14:05;;;;;;;;;2.00;2.00;;;;;1.63;89.40;100882.76;112796;240;39687;-53
2024/01/26 01:16:45;;;;;;;;;2.67;2.00;;;;;1.61;89.51;100879.37;112777;240;40454;-52
2024/01/26 01:19:28;;;;;;;;;3.00;2.00;;;;;1.65;89.44;100882.97;112826;240;40442;-55
2024/01/26 01:22:10;;;;;;;;;2.00;2.00;;;;;1.65;89.28;100886.85;112801;240;40250;-56
2024/01/26 01:24:47;;;;;;;;;2.00;2.00;;;;;1.70;89.34;100887.12;112801;240;39155;-52
2024/01/26 01:27:31;;;;;;;;;2.00;1.00;;;;;1.71;89.14;100895.11;112774;240;39817;-52
2024/01/26 01:30:12;;;;;;;;;2.25;2.00;;;;;1.68;89.10;100901.70;112807;240;39640;-56
2024/01/26 01:32:49;;;;;;;;;2.75;1.75;;;;;1.65;88.94;100910.77;112764;240;41763;-56
2024/01/26 01:35:30;;;;;;;;;4.00;3.33;;;;;1.62;88.52;100912.45;112779;240;40603;-54
2024/01/26 01:38:09;;;;;;;;;2.50;2.00;;;;;1.51;88.54;100915.12;112762;240;39975;-55
2024/01/26 01:40:46;;;;;;;;;2.00;2.00;;;;;1.44;88.53;100913.53;112806;240;39637;-52
2024/01/26 01:43:30;;;;;;;;;2.00;1.00;;;;;1.43;88.53;100911.01;112784;240;41183;-52
2024/01/26 01:46:06;;;;;;;;;1.00;1.00;;;;;1.36;88.62;100914.17;112840;240;41174;-56
2024/01/26 01:48:45;;;;;;;;;1.00;1.00;;;;;1.34;88.44;100914.14;112820;240;39293;-56
2024/01/26 01:51:24;;;;;;;;;3.75;2.75;;;;;1.38;88.54;100913.64;112765;240;40167;-52
2024/01/26 01:54:04;;;;;;;;;3.00;2.00;;;;;1.41;88.59;100923.00;112795;240;41244;-53
2024/01/26 01:56:51;;;;;;;;;2.00;1.00;;;;;1.44;88.71;100922.92;112777;240;39761;-52
2024/01/26 01:59:28;;;;;;;;;2.25;2.00;;;;;1.48;88.60;100926.70;112763;240;40908;-54
2024/01/26 02:02:05;;;;;;;;;1.00;1.00;;;;;1.49;88.58;100932.34;112786;240;39726;-55
2024/01/26 02:04:46;;;;;;;;;1.00;1.00;;;;;1.47;88.68;100932.68;112823;240;40048;-55
2024/01/26 02:07:25;;;;;;;;;2.00;2.00;;;;;1.48;88.92;100937.05;112765;240;39854;-55
2024/01/26 02:10:06;;;;;;;;;6.00;5.00;;;;;1.51;88.94;100942.30;112779;240;39582;-55
2024/01/26 02:12:48;;;;;;;;;6.75;5.00;;;;;1.52;88.84;100943.98;112788;240;39343;-55
2024/01/26 02:15:27;;;;;;;;;3.00;2.00;;;;;1.51;89.00;100945.10;112820;240;39610;-52
2024/01/26 02:18:06;;;;;;;;;4.00;3.00;;;;;1.52;88.98;100943.26;112756;240;40286;-53
2024/01/26 02:20:46;;;;;;;;;2.00;1.67;;;;;1.53;89.01;100942.51;112854;240;40927;-55
2024/01/26 02:23:29;;;;;;;;;5.00;4.25;;;;;1.52;88.94;100946.96;112764;240;39829;-56
2024/01/26 02:26:06;;;;;;;;;4.00;3.00;;;;;1.51;88.98;100948.52;112767;240;40877;-54
2024/01/26 02:28:48;;;;;;;;;4.50;4.00;;;;;1.45;89.04;100943.13;112746;240;40800;-55
2024/01/26 02:31:28;;;;;;;;;2.00;2.00;;;;;1.45;88.97;100938.84;112770;240;39675;-54
2024/01/26 02:34:06;;;;;;;;;4.00;3.25;;;;;1.46;88.89;100940.75;112790;240;41281;-54
2024/01/26 02:36:43;;;;;;;;;2.00;2.00;;;;;1.46;88.92;100940.20;112746;240;40400;-54
2024/01/26 02:39:26;;;;;;;;;3.25;2.25;;;;;1.45;88.93;100942.38;112795;240;39801;-52
2024/01/26 02:42:04;;;;;;;;;11.67;8.67;;;;;1.43;88.93;100942.67;112773;240;38957;-52
2024/01/26 02:44:42;;;;;;;;;10.00;7.25;;;;;1.40;89.07;100948.99;112813;240;39447;-53
2024/01/26 02:47:21;;;;;;;;;5.00;4.00;;;;;1.38;89.08;100951.27;112774;240;40065;-52
2024/01/26 02:50:02;;;;;;;;;3.50;3.00;;;;;1.42;88.98;100951.70;112772;240;41242;-55
2024/01/26 02:52:38;;;;;;;;;4.00;3.00;;;;;1.46;89.06;100957.79;112792;240;41120;-55
2024/01/26 02:55:14;;;;;;;;;3.00;2.25;;;;;1.46;89.15;100961.82;112779;240;39945;-55
2024/01/26 02:57:54;;;;;;;;;2.00;2.00;;;;;1.47;89.24;100964.04;112789;240;39404;-55
2024/01/26 03:00:30;;;;;;;;;2.50;2.00;;;;;1.54;89.21;100969.71;112813;240;39441;-53
2024/01/26 03:03:06;;;;;;;;;4.00;4.00;;;;;1.58;89.13;100972.25;112776;240;39750;-52
2024/01/26 03:05:49;;;;;;;;;3.25;3.00;;;;;1.59;89.21;100977.02;112830;240;39384;-55
2024/01/26 03:08:31;;;;;;;;;3.00;2.00;;;;;1.61;89.14;100977.16;112761;240;40326;-56
2024/01/26 03:11:08;;;;;;;;;5.00;4.00;;;;;1.65;89.03;100974.20;112801;240;41324;-53
2024/01/26 03:13:45;;;;;;;;;8.00;6.00;;;;;1.57;88.97;100975.21;112755;240;39892;-52
2024/01/26 03:16:20;;;;;;;;;3.00;2.50;;;;;1.58;88.91;100977.98;112820;240;39700;-52
2024/01/26 03:18:56;;;;;;;;;4.00;3.00;;;;;1.52;88.89;100976.59;112784;240;39276;-53
2024/01/26 03:21:44;;;;;;;;;3.00;3.00;;;;;1.54;88.92;100983.41;112824;240;40073;-51
2024/01/26 03:24:20;;;;;;;;;2.00;2.00;;;;;1.52;88.94;100985.84;112818;240;40212;-56
2024/01/26 03:26:58;;;;;;;;;2.50;2.00;;;;;1.51;88.99;100990.94;112789;240;39760;-57
2024/01/26 03:29:34;;;;;;;;;3.00;2.00;;;;;1.49;88.94;100990.49;112824;240;41193;-53
2024/01/26 03:32:09;;;;;;;;;2.00;1.00;;;;;1.49;88.91;100992.88;112786;240;39358;-53
2024/01/26 03:34:47;;;;;;;;;1.00;1.00;;;;;1.45;88.94;100996.30;112795;240;39406;-52
2024/01/26 03:37:26;;;;;;;;;3.67;2.33;;;;;1.41;89.02;100999.33;112777;240;39490;-52
2024/01/26 03:40:06;;;;;;;;;3.00;2.50;;;;;1.40;89.14;100996.73;112793;240;38925;-55
2024/01/26 03:42:44;;;;;;;;;3.00;2.33;;;;;1.41;89.14;100995.96;112800;240;41356;-55
2024/01/26 03:45:25;;;;;;;;;1.75;1.00;;;;;1.37;89.19;100999.95;112806;240;39228;-52
2024/01/26 03:48:04;;;;;;;;;3.00;2.00;;;;;1.43;89.26;100999.02;112788;240;41310;-51
2024/01/26 03:50:41;;;;;;;;;2.25;2.00;;;;;1.48;89.13;101002.48;112823;240;39627;-55
2024/01/26 03:53:19;;;;;;;;;1.50;1.00;;;;;1.52;89.08;101001.35;112760;240;39412;-55
2024/01/26 03:56:01;;;;;;;;;2.00;2.00;;;;;1.51;89.12;100998.73;112811;240;40207;-55
2024/01/26 03:58:44;;;;;;;;;4.00;2.00;;;;;1.50;89.14;101008.77;112800;240;40531;-55
2024/01/26 04:01:21;;;;;;;;;3.00;1.00;;;;;1.51;88.91;101011.14;112833;240;39164;-54
2024/01/26 04:04:05;;;;;;;;;1.00;1.00;;;;;1.50;88.88;101016.35;112783;240;39353;-54
2024/01/26 04:06:50;;;;;;;;;1.00;1.00;;;;;1.48;88.71;101019.71;112766;240;39653;-52
2024/01/26 04:09:29;;;;;;;;;2.00;1.00;;;;;1.39;88.64;101025.73;112802;240;39819;-51
2024/01/26 04:12:08;;;;;;;;;1.00;1.00;;;;;1.37;88.70;101027.13;112784;240;40657;-51
2024/01/26 04:14:45;;;;;;;;;2.00;2.00;;;;;1.39;88.70;101032.11;112816;240;39539;-52
2024/01/26 04:17:23;;;;;;;;;2.00;1.00;;;;;1.39;88.77;101036.21;112805;240;41106;-53
2024/01/26 04:20:03;;;;;;;;;2.00;1.50;;;;;1.35;88.61;101042.02;112816;240;39864;-54
2024/01/26 04:22:39;;;;;;;;;1.00;1.00;;;;;1.28;88.67;101044.31;112766;240;40573;-54
2024/01/26 04:25:14;;;;;;;;;2.00;1.00;;;;;1.29;88.74;101047.81;112828;240;40119;-55
2024/01/26 04:27:53;;;;;;;;;2.00;1.67;;;;;1.32;88.88;101048.13;112771;240;39670;-55
2024/01/26 04:30:33;;;;;;;;;3.00;3.00;;;;;1.33;88.85;101054.20;112779;240;39342;-52
2024/01/26 04:33:10;;;;;;;;;9.75;6.00;;;;;1.35;88.79;101048.75;112779;240;39646;-52
2024/01/26 04:35:49;;;;;;;;;10.25;8.00;;;;;1.33;88.87;101049.80;112837;240;40588;-51
2024/01/26 04:38:24;;;;;;;;;4.00;3.00;;;;;1.39;88.81;101046.87;112779;240;41377;-51
2024/01/26 04:41:03;;;;;;;;;5.00;3.00;;;;;1.41;88.94;101045.27;112795;240;41055;-52
2024/01/26 04:43:44;;;;;;;;;2.75;1.25;;;;;1.41;88.91;101046.34;112797;240;39675;-52
2024/01/26 04:46:26;;;;;;;;;2.00;2.00;;;;;1.40;88.80;101048.02;112810;240;39794;-52
2024/01/26 04:49:07;;;;;;;;;3.00;1.00;;;;;1.42;88.57;101049.66;112828;240;40143;-54
2024/01/26 04:51:49;;;;;;;;;3.00;2.75;;;;;1.40;88.63;101051.94;112792;240;39960;-54
2024/01/26 04:54:27;;;;;;;;;9.00;6.00;;;;;1.36;88.53;101055.10;112802;240;39956;-54
2024/01/26 04:57:03;;;;;;;;;4.25;3.25;;;;;1.29;88.45;101056.31;112773;240;39343;-54
2024/01/26 04:59:43;;;;;;;;;1.00;1.00;;;;;1.27;88.33;101064.41;112779;240;39339;-51
2024/01/26 05:02:23;;;;;;;;;1.00;1.00;;;;;1.27;88.24;101062.30;112725;240;39606;-51
2024/01/26 05:05:06;;;;;;;;;1.00;1.00;;;;;1.29;88.05;101055.40;112772;240;39663;-51
2024/01/26 05:07:46;;;;;;;;;2.00;1.00;;;;;1.22;88.08;101058.58;112378;240;468645;-51
2024/01/26 05:10:29;;;;;;;;;1.50;1.00;;;;;1.23;88.19;101062.84;112826;240;39453;-52
2024/01/26 05:13:07;;;;;;;;;1.00;1.00;;;;;1.19;88.10;101062.68;112752;240;39852;-52
2024/01/26 05:15:43;;;;;;;;;2.33;2.00;;;;;1.20;88.11;101068.70;112787;240;39774;-54
2024/01/26 05:18:18;;;;;;;;;0.00;0.00;;;;;1.14;88.17;101073.94;112785;240;40120;-54
2024/01/26 05:20:57;;;;;;;;;1.00;1.00;;;;;1.09;88.13;101074.81;112816;240;39534;-51
2024/01/26 05:23:37;;;;;;;;;2.25;2.00;;;;;1.10;88.20;101074.79;112778;240;40940;-51
2024/01/26 05:26:19;;;;;;;;;2.00;1.00;;;;;1.11;88.21;101074.87;112791;240;40779;-51
2024/01/26 05:29:04;;;;;;;;;3.00;2.00;;;;;1.13;88.21;101073.63;112803;240;39739;-53
2024/01/26 05:31:49;;;;;;;;;2.75;2.00;;;;;1.15;88.23;101080.55;112797;240;39491;-56
2024/01/26 05:34:24;;;;;;;;;2.00;1.25;;;;;1.16;88.31;101080.70;112814;240;39628;-55
2024/01/26 05:37:06;;;;;;;;;3.00;2.00;;;;;1.22;88.31;101082.94;112787;240;39605;-56
2024/01/26 05:39:45;;;;;;;;;2.00;1.00;;;;;1.21;88.39;101085.30;112828;240;40939;-55
2024/01/26 05:42:26;;;;;;;;;2.00;1.00;;;;;1.22;88.27;101090.20;112762;240;40424;-56
2024/01/26 05:45:09;;;;;;;;;1.00;1.00;;;;;1.23;88.28;101092.65;112772;240;39291;-52
2024/01/26 05:47:47;;;;;;;;;2.00;2.00;;;;;1.21;88.30;101090.77;112789;240;40176;-52
2024/01/26 05:50:38;;;;;;;;;1.33;1.00;;;;;1.24;88.11;101093.45;112815;240;41119;-54
2024/01/26 05:53:18;;;;;;;;;3.00;2.00;;;;;1.24;88.10;101098.95;112765;240;39632;-54
2024/01/26 05:55:55;;;;;;;;;1.00;0.00;;;;;1.25;87.84;101102.90;112812;240;40480;-51
2024/01/26 05:58:34;;;;;;;;;1.00;0.50;;;;;1.19;87.64;101102.62;112767;240;39835;-51
2024/01/26 06:01:09;;;;;;;;;2.00;1.25;;;;;1.15;87.58;101104.17;112818;240;40166;-52
2024/01/26 06:03:52;;;;;;;;;1.00;1.00;;;;;1.13;87.56;101100.79;112799;240;40678;-52
2024/01/26 06:06:33;;;;;;;;;1.25;1.00;;;;;1.06;87.47;101096.46;112753;240;39634;-54
2024/01/26 06:09:12;;;;;;;;;1.00;0.75;;;;;1.05;87.42;101099.77;112819;240;40244;-55
2024/01/26 06:11:50;;;;;;;;;0.75;0.75;;;;;1.02;87.42;101103.38;112765;240;39562;-56
2024/01/26 06:14:28;;;;;;;;;1.00;1.00;;;;;1.01;87.47;101106.62;112805;240;39082;-54
2024/01/26 06:17:04;;;;;;;;;1.00;1.00;;;;;0.98;87.33;101107.39;112784;240;40130;-54
2024/01/26 06:19:43;;;;;;;;;1.00;1.00;;;;;0.97;87.35;101108.14;112835;240;40266;-55
2024/01/26 06:22:21;;;;;;;;;0.25;0.25;;;;;0.96;87.35;101108.44;112780;240;41039;-56
2024/01/26 06:25:00;;;;;;;;;1.00;1.00;;;;;0.89;87.36;101109.77;112801;240;39866;-54
2024/01/26 06:27:38;;;;;;;;;1.00;1.00;;;;;0.91;87.41;101115.52;112823;240;41620;-54
2024/01/26 06:30:18;;;;;;;;;1.00;1.00;;;;;0.87;87.40;101114.39;112783;240;39864;-55
2024/01/26 06:32:57;;;;;;;;;1.00;1.00;;;;;0.89;87.44;101110.70;112806;240;39546;-56
2024/01/26 06:35:36;;;;;;;;;0.33;0.33;;;;;0.96;87.38;101115.14;112799;240;39580;-53
2024/01/26 06:38:14;;;;;;;;;1.00;1.00;;;;;1.01;87.45;101115.68;112797;240;40294;-53
2024/01/26 06:40:57;;;;;;;;;1.00;1.00;;;;;1.06;87.30;101114.41;112857;240;39369;-55
2024/01/26 06:43:37;;;;;;;;;0.00;0.00;;;;;1.09;87.29;101114.77;112768;240;39912;-55
2024/01/26 06:46:15;;;;;;;;;1.00;1.00;;;;;1.15;87.33;101112.29;112781;240;39714;-56
2024/01/26 06:48:57;;;;;;;;;2.00;1.00;;;;;1.20;87.37;101113.01;112757;240;39839;-57
2024/01/26 06:51:36;;;;;;;;;2.00;1.00;;;;;1.25;87.19;101109.13;112778;240;39576;-52
2024/01/26 06:54:16;;;;;;;;;1.50;1.25;;;;;1.25;87.26;101110.00;112833;240;39183;-53
2024/01/26 06:56:58;;;;;;;;;2.67;2.00;;;;;1.24;87.32;101110.06;112795;240;39300;-57
2024/01/26 06:59:39;;;;;;;;;2.00;1.00;;;;;1.19;87.25;101108.30;112833;240;40200;-51
2024/01/26 07:02:22;;;;;;;;;1.00;1.00;;;;;1.18;87.34;101107.11;112773;240;41202;-51
2024/01/26 07:05:01;;;;;;;;;1.00;1.00;;;;;1.18;87.38;101106.48;112795;240;41110;-54
2024/01/26 07:07:41;;;;;;;;;3.25;1.00;;;;;1.20;87.34;101108.23;112773;240;40264;-55
2024/01/26 07:10:20;;;;;;;;;1.00;0.00;;;;;1.19;87.39;101112.23;112800;240;39053;-56
2024/01/26 07:13:00;;;;;;;;;1.50;1.00;;;;;1.22;87.48;101114.87;112804;240;40880;-57
2024/01/26 07:15:43;;;;;;;;;1.00;1.00;;;;;1.24;87.41;101119.30;112804;240;39457;-54
2024/01/26 07:18:21;;;;;;;;;0.67;0.00;;;;;1.24;87.44;101130.30;112763;240;39496;-54
2024/01/26 07:20:59;;;;;;;;;1.00;1.00;;;;;1.31;87.59;101135.68;112805;240;39431;-53
2024/01/26 07:23:39;;;;;;;;;2.00;1.00;;;;;1.36;87.79;101135.10;112782;240;41014;-53
2024/01/26 07:26:22;;;;;;;;;1.25;1.25;;;;;1.41;87.71;101135.42;112813;240;39996;-51
2024/01/26 07:29:05;;;;;;;;;4.33;2.00;;;;;1.41;87.61;101140.38;112803;240;39472;-54
2024/01/26 07:31:47;;;;;;;;;2.00;2.00;;;;;1.45;87.74;101139.38;112787;240;39903;-55
2024/01/26 07:34:26;;;;;;;;;2.75;2.00;;;;;1.50;87.71;101143.29;112783;240;40028;-53
2024/01/26 07:37:09;;;;;;;;;2.00;1.75;;;;;1.52;87.67;101147.89;112779;240;39790;-52
2024/01/26 07:39:50;;;;;;;;;3.00;2.00;;;;;1.56;87.58;101146.19;112781;240;41314;-54
2024/01/26 07:42:32;;;;;;;;;3.00;2.00;;;;;1.62;87.68;101145.40;112757;240;39989;-55
2024/01/26 07:45:10;;;;;;;;;2.00;2.00;;;;;1.61;87.64;101145.06;112782;240;40480;-53
2024/01/26 07:47:52;;;;;;;;;1.00;1.00;;;;;1.63;87.68;101152.23;112778;240;39485;-53
2024/01/26 07:50:28;;;;;;;;;2.00;1.00;;;;;1.62;87.59;101157.27;112795;240;40070;-52
2024/01/26 07:53:05;;;;;;;;;3.00;3.00;;;;;1.66;87.55;101159.83;112799;240;40431;-52
2024/01/26 07:55:44;;;;;;;;;4.00;3.00;;;;;1.70;87.50;101164.29;112814;240;41057;-52
2024/01/26 07:58:21;;;;;;;;;3.00;3.00;;;;;1.70;87.49;101165.32;112813;240;40786;-52
2024/01/26 08:01:00;;;;;;;;;4.00;3.00;;;;;1.76;87.51;101165.64;112804;240;39526;-53
2024/01/26 08:03:43;;;;;;;;;3.25;3.00;;;;;1.80;87.36;101168.19;112807;240;39139;-53
2024/01/26 08:06:24;;;;;;;;;5.00;4.00;;;;;1.85;87.32;101167.61;112821;240;39185;-53
2024/01/26 08:09:04;;;;;;;;;4.00;3.00;;;;;1.89;87.21;101165.04;112785;240;39124;-53
2024/01/26 08:11:49;;;;;;;;;3.75;3.75;;;;;1.93;87.16;101165.61;112751;240;41315;-52
2024/01/26 08:14:31;;;;;;;;;4.00;4.00;;;;;1.98;87.11;101165.96;112786;240;40027;-53
2024/01/26 08:17:08;;;;;;;;;4.75;3.75;;;;;1.97;87.00;101166.38;112782;240;39260;-52
2024/01/26 08:19:45;;;;;;;;;8.00;6.00;;;;;1.95;86.94;101167.42;112795;240;39858;-53
2024/01/26 08:22:28;;;;;;;;;9.00;7.00;;;;;1.96;86.97;101169.98;112744;240;39624;-50
2024/01/26 08:25:09;;;;;;;;;7.00;5.50;;;;;1.95;86.52;101167.91;112790;240;41537;-56
2024/01/26 08:27:48;;;;;;;;;6.00;5.00;;;;;1.97;86.59;101163.71;112813;240;40368;-56
2024/01/26 08:30:25;;;;;;;;;4.00;4.00;;;;;1.96;86.54;101161.25;112782;240;39421;-52
2024/01/26 08:33:08;;;;;;;;;6.50;4.75;;;;;1.98;86.68;101161.11;112775;240;40329;-53
2024/01/26 08:35:47;;;;;;;;;5.00;3.00;;;;;2.04;86.68;101157.98;112794;240;39228;-55
2024/01/26 08:38:24;;;;;;;;;6.00;4.00;;;;;2.08;86.64;101155.17;112835;240;39681;-56
2024/01/26 08:41:07;;;;;;;;;4.00;4.00;;;;;2.11;86.49;101158.18;112828;240;39599;-51
2024/01/26 08:43:51;;;;;;;;;7.50;6.00;;;;;2.19;86.63;101149.89;112783;240;39150;-52
2024/01/26 08:46:31;;;;;;;;;8.25;5.00;;;;;2.33;86.76;101154.82;112779;240;39666;-54
2024/01/26 08:49:09;;;;;;;;;10.00;8.75;;;;;2.42;86.66;101152.55;112793;240;40562;-52
2024/01/26 08:51:45;;;;;;;;;8.00;6.00;;;;;2.42;86.29;101153.96;112789;240;39697;-51
2024/01/26 08:54:24;;;;;;;;;5.00;4.00;;;;;2.45;86.30;101150.52;112842;240;39738;-54
2024/01/26 08:57:01;;;;;;;;;7.00;5.00;;;;;2.50;86.07;101145.37;112793;240;40015;-55
2024/01/26 08:59:46;;;;;;;;;8.00;6.00;;;;;2.50;86.16;101141.83;112812;240;41055;-54
2024/01/26 09:02:28;;;;;;;;;5.00;4.00;;;;;2.47;86.11;101148.98;112786;240;41353;-54
2024/01/26 09:05:07;;;;;;;;;5.00;4.00;;;;;2.46;85.97;101146.74;112824;240;39921;-54
2024/01/26 09:07:47;;;;;;;;;7.00;5.75;;;;;2.49;85.87;101142.75;112820;240;39056;-54
2024/01/26 09:10:27;;;;;;;;;7.00;5.00;;;;;2.55;86.08;101145.34;112785;240;40114;-54
2024/01/26 09:13:12;;;;;;;;;7.00;5.00;;;;;2.63;86.16;101144.88;112766;240;39342;-55
2024/01/26 09:15:56;;;;;;;;;7.25;5.50;;;;;2.67;85.92;101145.38;112820;240;40965;-53
2024/01/26 09:18:35;;;;;;;;;7.00;6.00;;;;;2.72;86.01;101146.81;112767;240;39606;-53
2024/01/26 09:21:19;;;;;;;;;4.00;3.00;;;;;2.75;86.05;101149.02;112814;240;40339;-51
2024/01/26 09:24:02;;;;;;;;;7.67;5.67;;;;;2.83;85.91;101144.68;112789;240;41330;-53
2024/01/26 09:26:42;;;;;;;;;7.00;6.00;;;;;2.84;85.87;101143.67;112791;240;39239;-53
2024/01/26 09:29:22;;;;;;;;;6.00;4.00;;;;;2.97;85.93;101142.46;112810;240;39803;-52
2024/01/26 09:32:02;;;;;;;;;5.00;4.00;;;;;3.04;85.62;101133.43;112773;240;40057;-51
2024/01/26 09:34:41;;;;;;;;;5.00;3.00;;;;;3.01;85.59;101126.47;112791;240;39931;-52
2024/01/26 09:37:17;;;;;;;;;7.75;5.50;;;;;3.11;85.49;101120.03;112787;240;40171;-52
2024/01/26 09:39:59;;;;;;;;;7.00;5.00;;;;;3.21;85.39;101125.44;112824;240;40443;-52
2024/01/26 09:42:39;;;;;;;;;5.00;4.00;;;;;3.27;85.18;101127.41;112785;240;39948;-53
2024/01/26 09:45:17;;;;;;;;;9.00;5.00;;;;;3.31;84.94;101133.31;112790;240;39336;-53
2024/01/26 09:48:00;;;;;;;;;4.25;3.75;;;;;3.23;84.57;101131.42;112798;240;40658;-53
2024/01/26 09:50:50;;;;;;;;;6.00;4.75;;;;;3.17;84.36;101124.86;112800;240;39803;-55
2024/01/26 09:53:33;;;;;;;;;7.00;4.00;;;;;3.18;84.05;101118.22;112797;240;40662;-57
2024/01/26 09:56:11;;;;;;;;;7.00;4.00;;;;;3.19;83.92;101117.36;112832;240;39962;-56
2024/01/26 09:58:53;;;;;;;;;5.00;4.00;;;;;3.20;83.65;101115.15;112772;240;40204;-57
2024/01/26 10:01:33;;;;;;;;;6.00;4.00;;;;;3.15;83.63;101112.58;112763;240;39877;-54
2024/01/26 10:04:09;;;;;;;;;5.00;4.00;;;;;3.19;83.36;101107.80;112827;240;40613;-56
2024/01/26 10:06:48;;;;;;;;;7.00;6.00;;;;;3.20;83.21;101106.22;112797;240;40866;-56
2024/01/26 10:09:34;;;;;;;;;3.00;2.25;;;;;3.22;83.16;101100.77;112831;240;39384;-54
2024/01/26 10:12:12;;;;;;;;;3.25;3.00;;;;;3.26;82.92;101094.05;112793;240;40105;-53
2024/01/26 10:15:01;;;;;;;;;5.00;3.00;;;;;3.31;82.77;101087.55;112836;240;40147;-52
2024/01/26 10:17:41;;;;;;;;;4.00;3.00;;;;;3.39;82.59;101086.53;112785;240;40107;-52
2024/01/26 10:20:18;;;;;;;;;3.00;3.00;;;;;3.50;82.60;101081.86;112840;240;40661;-56
2024/01/26 10:22:57;;;;;;;;;4.00;3.00;;;;;3.51;82.22;101083.04;112738;240;39682;-56
2024/01/26 10:25:31;;;;;;;;;4.00;3.67;;;;;3.46;82.29;101076.13;112850;240;39929;-53
2024/01/26 10:28:14;;;;;;;;;7.25;5.00;;;;;3.53;82.09;101068.61;112824;240;40904;-53
2024/01/26 10:30:54;;;;;;;;;3.67;3.67;;;;;3.55;82.09;101062.05;112798;240;39587;-53
2024/01/26 10:33:40;;;;;;;;;6.00;5.25;;;;;3.61;81.69;101057.39;112785;240;40578;-52
2024/01/26 10:36:22;;;;;;;;;3.00;3.00;;;;;3.62;81.38;101061.43;112826;240;39906;-52
2024/01/26 10:39:05;;;;;;;;;5.25;4.75;;;;;3.60;81.49;101057.13;112811;240;40738;-53
2024/01/26 10:41:48;;;;;;;;;4.00;4.00;;;;;3.64;81.29;101050.59;112783;240;39748;-53
2024/01/26 10:44:26;;;;;;;;;3.00;3.00;;;;;3.58;81.12;101049.98;112817;240;40505;-56
2024/01/26 10:47:04;;;;;;;;;6.00;4.00;;;;;3.62;80.95;101040.77;112772;240;41189;-57
2024/01/26 10:49:44;;;;;;;;;5.00;4.25;;;;;3.65;80.98;101041.98;112836;240;39575;-56
2024/01/26 10:52:23;;;;;;;;;4.25;4.00;;;;;3.67;81.15;101041.76;112795;240;39939;-57
2024/01/26 10:55:03;;;;;;;;;8.00;6.00;;;;;3.81;80.97;101038.56;112817;240;40763;-55
2024/01/26 10:57:40;;;;;;;;;7.00;5.00;;;;;3.87;80.98;101035.45;112796;240;39274;-55
2024/01/26 11:00:16;;;;;;;;;6.75;5.75;;;;;3.90;80.80;101029.27;112823;240;40734;-52
2024/01/26 11:02:54;;;;;;;;;6.00;5.00;;;;;3.95;80.69;101027.07;112776;240;40092;-52
2024/01/26 11:05:30;;;;;;;;;6.00;5.00;;;;;3.99;80.89;101022.23;112858;240;39622;-52
2024/01/26 11:08:21;;;;;;;;;6.00;5.00;;;;;4.02;80.83;101022.58;112789;240;40096;-52
2024/01/26 11:11:01;;;;;;;;;5.00;4.00;;;;;4.03;80.83;101024.21;112801;240;40557;-52
2024/01/26 11:13:52;;;;;;;;;4.67;3.00;;;;;4.03;80.53;101027.19;112805;240;40933;-52
2024/01/26 11:16:34;;;;;;;;;7.00;4.00;;;;;3.96;80.31;101021.81;112763;240;42073;-54
2024/01/26 11:19:24;;;;;;;;;7.67;6.00;;;;;3.87;80.14;101020.97;112822;240;39555;-52
2024/01/26 11:22:06;;;;;;;;;4.25;4.00;;;;;3.88;80.01;101021.39;112781;240;39109;-52
2024/01/26 11:24:48;;;;;;;;;8.00;6.00;;;;;3.98;79.66;101024.14;112770;240;39132;-55
2024/01/26 11:27:32;;;;;;;;;8.25;7.00;;;;;3.97;79.83;101017.42;112794;240;40871;-55
2024/01/26 11:30:20;;;;;;;;;6.00;5.00;;;;;4.03;79.20;101011.39;112794;240;39837;-53
2024/01/26 11:32:59;;;;;;;;;5.50;5.00;;;;;4.09;78.53;101011.02;112816;240;40991;-54
2024/01/26 11:35:35;;;;;;;;;6.00;4.00;;;;;4.12;78.90;101006.10;112839;240;39542;-52
2024/01/26 11:38:12;;;;;;;;;6.00;5.00;;;;;4.08;78.46;101001.66;112786;240;39677;-52
2024/01/26 11:40:50;;;;;;;;;4.00;3.00;;;;;4.07;78.31;101006.23;112834;240;40763;-53
2024/01/26 11:43:30;;;;;;;;;4.00;3.00;;;;;4.10;78.19;101002.18;112757;240;39341;-54
2024/01/26 11:46:08;;;;;;;;;3.50;3.00;;;;;4.10;78.56;100999.92;112822;240;39965;-55
2024/01/26 11:48:47;;;;;;;;;4.00;3.00;;;;;4.07;78.30;100997.30;112808;240;39502;-55
2024/01/26 11:51:28;;;;;;;;;4.00;4.00;;;;;4.06;78.42;100996.30;112791;240;41158;-52
2024/01/26 11:54:13;;;;;;;;;8.00;7.00;;;;;4.05;78.45;100999.66;112806;240;39740;-56
2024/01/26 11:56:48;;;;;;;;;5.33;5.00;;;;;4.04;78.61;100997.17;112777;240;39746;-56
2024/01/26 11:59:27;;;;;;;;;5.00;5.00;;;;;4.02;78.46;100999.89;112807;240;39470;-56
2024/01/26 12:02:07;;;;;;;;;7.00;7.00;;;;;3.96;78.57;100995.47;112810;240;40271;-56
2024/01/26 12:04:48;;;;;;;;;5.00;4.00;;;;;3.94;78.34;100993.98;112754;240;39623;-52
2024/01/26 12:07:30;;;;;;;;;5.00;4.25;;;;;3.88;78.06;100993.67;112784;240;39363;-52
2024/01/26 12:10:12;;;;;;;;;7.00;5.00;;;;;3.86;77.38;100989.56;112833;240;40250;-55
2024/01/26 12:13:02;;;;;;;;;6.00;5.00;;;;;3.77;77.90;100979.98;112807;240;39370;-56
2024/01/26 12:15:39;;;;;;;;;5.00;5.00;;;;;3.74;78.00;100974.19;112828;240;39631;-52
2024/01/26 12:18:14;;;;;;;;;6.00;5.00;;;;;3.77;78.05;100963.46;112794;240;40172;-52
2024/01/26 12:20:54;;;;;;;;;5.00;5.00;;;;;3.84;78.13;100965.82;112815;240;39264;-54
2024/01/26 12:23:39;;;;;;;;;6.00;6.00;;;;;3.92;77.40;100961.95;112791;240;39600;-53
2024/01/26 12:26:19;;;;;;;;;5.50;4.75;;;;;3.87;76.65;100958.94;112818;240;40344;-56
2024/01/26 12:29:01;;;;;;;;;7.00;5.00;;;;;3.79;76.25;100958.75;112786;240;39579;-55
2024/01/26 12:31:45;;;;;;;;;8.00;6.00;;;;;3.69;76.51;100956.08;112784;240;39031;-52
2024/01/26 12:34:28;;;;;;;;;5.50;5.25;;;;;3.58;77.31;100958.79;112818;240;40353;-54